sensor_id;sensor_type;location;lat;lon;timestamp;temperature;humidity
52973;DHT22;38837;48.916;2.336;2023-06-14T00:00:37;26.70;41.10
52973;DHT22;38837;48.916;2.336;2023-06-14T00:02:42;26.70;41.00
52973;DHT22;38837;48.916;2.336;2023-06-14T00:04:44;26.70;41.10
52973;DHT22;38837;48.916;2.336;2023-06-14T00:06:47;26.70;41.20
52973;DHT22;38837;48.916;2.336;2023-06-14T00:08:50;26.60;41.20
52973;DHT22;38837;48.916;2.336;2023-06-14T00:10:52;26.60;41.30
52973;DHT22;38837;48.916;2.336;2023-06-14T00:12:55;26.60;41.20
52973;DHT22;38837;48.916;2.336;2023-06-14T00:14:57;26.60;41.30
52973;DHT22;38837;48.916;2.336;2023-06-14T00:16:59;26.60;41.30
52973;DHT22;38837;48.916;2.336;2023-06-14T00:19:01;26.60;41.40
52973;DHT22;38837;48.916;2.336;2023-06-14T00:21:05;26.50;41.40
52973;DHT22;38837;48.916;2.336;2023-06-14T00:23:07;26.60;41.40
52973;DHT22;38837;48.916;2.336;2023-06-14T00:25:09;26.50;41.30
52973;DHT22;38837;48.916;2.336;2023-06-14T00:27:29;26.50;41.40
52973;DHT22;38837;48.916;2.336;2023-06-14T00:29:31;26.50;41.50
52973;DHT22;38837;48.916;2.336;2023-06-14T00:31:33;26.50;41.50
52973;DHT22;38837;48.916;2.336;2023-06-14T00:33:34;26.50;41.60
52973;DHT22;38837;48.916;2.336;2023-06-14T00:35:36;26.50;41.60
52973;DHT22;38837;48.916;2.336;2023-06-14T00:37:39;26.50;41.60
52973;DHT22;38837;48.916;2.336;2023-06-14T00:39:41;26.40;41.60
52973;DHT22;38837;48.916;2.336;2023-06-14T00:41:42;26.40;41.60
52973;DHT22;38837;48.916;2.336;2023-06-14T00:43:44;26.40;41.60
52973;DHT22;38837;48.916;2.336;2023-06-14T00:45:46;26.40;41.60
52973;DHT22;38837;48.916;2.336;2023-06-14T00:47:49;26.40;41.70
52973;DHT22;38837;48.916;2.336;2023-06-14T00:49:55;26.40;41.70
52973;DHT22;38837;48.916;2.336;2023-06-14T00:52:00;26.40;41.70
52973;DHT22;38837;48.916;2.336;2023-06-14T00:54:02;26.40;41.80
52973;DHT22;38837;48.916;2.336;2023-06-14T00:56:04;26.40;41.80
52973;DHT22;38837;48.916;2.336;2023-06-14T00:58:07;26.30;41.80
52973;DHT22;38837;48.916;2.336;2023-06-14T01:00:09;26.40;41.90
52973;DHT22;38837;48.916;2.336;2023-06-14T01:02:12;26.30;41.80
52973;DHT22;38837;48.916;2.336;2023-06-14T01:04:17;26.30;41.80
52973;DHT22;38837;48.916;2.336;2023-06-14T01:08:50;26.30;41.90
52973;DHT22;38837;48.916;2.336;2023-06-14T01:10:58;26.30;41.90
52973;DHT22;38837;48.916;2.336;2023-06-14T01:15:08;26.30;42.00
52973;DHT22;38837;48.916;2.336;2023-06-14T01:17:11;26.30;42.00
52973;DHT22;38837;48.916;2.336;2023-06-14T01:19:18;26.30;42.00
52973;DHT22;38837;48.916;2.336;2023-06-14T01:21:24;26.20;42.00
52973;DHT22;38837;48.916;2.336;2023-06-14T01:23:26;26.20;42.00
52973;DHT22;38837;48.916;2.336;2023-06-14T01:25:34;26.20;42.10
52973;DHT22;38837;48.916;2.336;2023-06-14T01:27:37;26.20;42.10
52973;DHT22;38837;48.916;2.336;2023-06-14T01:29:40;26.20;42.10
52973;DHT22;38837;48.916;2.336;2023-06-14T01:31:47;26.20;42.20
52973;DHT22;38837;48.916;2.336;2023-06-14T01:33:51;26.20;42.20
52973;DHT22;38837;48.916;2.336;2023-06-14T01:35:54;26.20;42.20
52973;DHT22;38837;48.916;2.336;2023-06-14T01:37:57;26.20;42.20
52973;DHT22;38837;48.916;2.336;2023-06-14T01:40:00;26.20;42.20
52973;DHT22;38837;48.916;2.336;2023-06-14T01:42:03;26.20;42.30
52973;DHT22;38837;48.916;2.336;2023-06-14T01:44:05;26.20;42.30
52973;DHT22;38837;48.916;2.336;2023-06-14T01:46:08;26.10;42.30
52973;DHT22;38837;48.916;2.336;2023-06-14T01:48:11;26.10;42.30
52973;DHT22;38837;48.916;2.336;2023-06-14T01:50:14;26.10;42.30
52973;DHT22;38837;48.916;2.336;2023-06-14T01:52:19;26.10;42.30
52973;DHT22;38837;48.916;2.336;2023-06-14T01:54:23;26.10;42.30
52973;DHT22;38837;48.916;2.336;2023-06-14T01:56:27;26.10;42.30
52973;DHT22;38837;48.916;2.336;2023-06-14T01:58:29;26.10;42.40
52973;DHT22;38837;48.916;2.336;2023-06-14T02:00:31;26.10;42.40
52973;DHT22;38837;48.916;2.336;2023-06-14T02:02:33;26.10;42.40
52973;DHT22;38837;48.916;2.336;2023-06-14T02:04:35;26.10;42.50
52973;DHT22;38837;48.916;2.336;2023-06-14T02:06:37;26.10;42.50
52973;DHT22;38837;48.916;2.336;2023-06-14T02:08:39;26.10;42.50
52973;DHT22;38837;48.916;2.336;2023-06-14T02:10:41;26.10;42.50
52973;DHT22;38837;48.916;2.336;2023-06-14T02:12:44;26.00;42.50
52973;DHT22;38837;48.916;2.336;2023-06-14T02:14:46;26.00;42.50
52973;DHT22;38837;48.916;2.336;2023-06-14T02:16:48;26.00;42.50
52973;DHT22;38837;48.916;2.336;2023-06-14T02:18:52;26.10;42.60
52973;DHT22;38837;48.916;2.336;2023-06-14T02:20:54;26.00;42.50
52973;DHT22;38837;48.916;2.336;2023-06-14T02:22:57;26.00;42.60
52973;DHT22;38837;48.916;2.336;2023-06-14T02:24:59;26.00;42.60
52973;DHT22;38837;48.916;2.336;2023-06-14T02:27:04;26.00;42.60
52973;DHT22;38837;48.916;2.336;2023-06-14T02:29:06;26.00;42.70
52973;DHT22;38837;48.916;2.336;2023-06-14T02:31:10;26.00;42.70
52973;DHT22;38837;48.916;2.336;2023-06-14T02:33:12;26.00;42.70
52973;DHT22;38837;48.916;2.336;2023-06-14T02:35:15;26.00;42.70
52973;DHT22;38837;48.916;2.336;2023-06-14T02:37:16;26.00;42.70
52973;DHT22;38837;48.916;2.336;2023-06-14T02:39:18;25.90;42.70
52973;DHT22;38837;48.916;2.336;2023-06-14T02:41:22;26.00;42.80
52973;DHT22;38837;48.916;2.336;2023-06-14T02:43:24;26.00;42.80
52973;DHT22;38837;48.916;2.336;2023-06-14T02:45:26;25.90;42.80
52973;DHT22;38837;48.916;2.336;2023-06-14T02:47:28;26.00;42.80
52973;DHT22;38837;48.916;2.336;2023-06-14T02:49:30;25.90;42.80
52973;DHT22;38837;48.916;2.336;2023-06-14T02:51:32;25.90;42.80
52973;DHT22;38837;48.916;2.336;2023-06-14T02:53:34;25.90;42.80
52973;DHT22;38837;48.916;2.336;2023-06-14T02:55:36;25.90;42.80
52973;DHT22;38837;48.916;2.336;2023-06-14T02:57:41;25.90;42.90
52973;DHT22;38837;48.916;2.336;2023-06-14T02:59:43;25.90;42.90
52973;DHT22;38837;48.916;2.336;2023-06-14T03:01:45;25.90;42.90
52973;DHT22;38837;48.916;2.336;2023-06-14T03:03:47;25.90;42.90
52973;DHT22;38837;48.916;2.336;2023-06-14T03:05:50;25.90;43.00
52973;DHT22;38837;48.916;2.336;2023-06-14T03:07:52;25.90;43.00
52973;DHT22;38837;48.916;2.336;2023-06-14T03:09:55;25.80;42.90
52973;DHT22;38837;48.916;2.336;2023-06-14T03:11:57;25.90;43.00
52973;DHT22;38837;48.916;2.336;2023-06-14T03:14:00;25.90;43.00
52973;DHT22;38837;48.916;2.336;2023-06-14T03:16:02;25.80;42.90
52973;DHT22;38837;48.916;2.336;2023-06-14T03:18:04;25.80;42.90
52973;DHT22;38837;48.916;2.336;2023-06-14T03:20:06;25.80;42.90
52973;DHT22;38837;48.916;2.336;2023-06-14T03:22:10;25.80;43.00
52973;DHT22;38837;48.916;2.336;2023-06-14T03:24:13;25.80;43.00
52973;DHT22;38837;48.916;2.336;2023-06-14T03:26:15;25.80;43.00
52973;DHT22;38837;48.916;2.336;2023-06-14T03:28:20;25.80;43.00
52973;DHT22;38837;48.916;2.336;2023-06-14T03:30:23;25.80;43.10
52973;DHT22;38837;48.916;2.336;2023-06-14T03:32:24;25.80;43.10
52973;DHT22;38837;48.916;2.336;2023-06-14T03:34:26;25.80;43.10
52973;DHT22;38837;48.916;2.336;2023-06-14T03:36:28;25.80;43.10
52973;DHT22;38837;48.916;2.336;2023-06-14T03:38:31;25.70;43.60
52973;DHT22;38837;48.916;2.336;2023-06-14T03:40:32;25.70;43.10
52973;DHT22;38837;48.916;2.336;2023-06-14T03:42:34;25.70;43.10
52973;DHT22;38837;48.916;2.336;2023-06-14T03:44:36;25.80;43.20
52973;DHT22;38837;48.916;2.336;2023-06-14T03:46:38;25.70;43.20
52973;DHT22;38837;48.916;2.336;2023-06-14T03:48:41;25.80;43.20
52973;DHT22;38837;48.916;2.336;2023-06-14T03:50:43;25.80;43.30
52973;DHT22;38837;48.916;2.336;2023-06-14T03:52:48;25.70;43.20
52973;DHT22;38837;48.916;2.336;2023-06-14T03:54:50;25.70;43.30
52973;DHT22;38837;48.916;2.336;2023-06-14T03:56:55;25.70;43.20
52973;DHT22;38837;48.916;2.336;2023-06-14T03:58:58;25.70;43.30
52973;DHT22;38837;48.916;2.336;2023-06-14T04:01:00;25.70;43.30
52973;DHT22;38837;48.916;2.336;2023-06-14T04:03:02;25.60;43.20
52973;DHT22;38837;48.916;2.336;2023-06-14T04:05:06;25.60;43.30
52973;DHT22;38837;48.916;2.336;2023-06-14T04:07:11;25.60;43.30
52973;DHT22;38837;48.916;2.336;2023-06-14T04:09:13;25.70;43.40
52973;DHT22;38837;48.916;2.336;2023-06-14T04:11:15;25.60;43.30
52973;DHT22;38837;48.916;2.336;2023-06-14T04:13:17;25.60;43.30
52973;DHT22;38837;48.916;2.336;2023-06-14T04:15:19;25.60;43.30
52973;DHT22;38837;48.916;2.336;2023-06-14T04:17:23;25.60;43.40
52973;DHT22;38837;48.916;2.336;2023-06-14T04:19:25;25.60;43.40
52973;DHT22;38837;48.916;2.336;2023-06-14T04:21:27;25.60;43.40
52973;DHT22;38837;48.916;2.336;2023-06-14T04:23:30;25.60;43.40
52973;DHT22;38837;48.916;2.336;2023-06-14T04:25:32;25.60;43.40
52973;DHT22;38837;48.916;2.336;2023-06-14T04:27:35;25.60;43.40
52973;DHT22;38837;48.916;2.336;2023-06-14T04:29:38;25.60;43.40
52973;DHT22;38837;48.916;2.336;2023-06-14T04:31:41;25.50;43.40
52973;DHT22;38837;48.916;2.336;2023-06-14T04:33:43;25.60;43.40
52973;DHT22;38837;48.916;2.336;2023-06-14T04:35:47;25.50;43.40
52973;DHT22;38837;48.916;2.336;2023-06-14T04:37:50;25.60;43.50
52973;DHT22;38837;48.916;2.336;2023-06-14T04:39:52;25.60;43.50
52973;DHT22;38837;48.916;2.336;2023-06-14T04:41:54;25.50;43.40
52973;DHT22;38837;48.916;2.336;2023-06-14T04:44:00;25.50;43.50
52973;DHT22;38837;48.916;2.336;2023-06-14T04:46:06;25.50;43.50
52973;DHT22;38837;48.916;2.336;2023-06-14T04:48:12;25.50;43.50
52973;DHT22;38837;48.916;2.336;2023-06-14T04:50:15;25.50;43.50
52973;DHT22;38837;48.916;2.336;2023-06-14T04:52:19;25.50;43.50
52973;DHT22;38837;48.916;2.336;2023-06-14T04:54:23;25.50;43.50
52973;DHT22;38837;48.916;2.336;2023-06-14T04:56:26;25.50;44.10
52973;DHT22;38837;48.916;2.336;2023-06-14T04:58:28;25.50;43.60
52973;DHT22;38837;48.916;2.336;2023-06-14T05:00:30;25.50;43.50
52973;DHT22;38837;48.916;2.336;2023-06-14T05:02:33;25.50;43.60
52973;DHT22;38837;48.916;2.336;2023-06-14T05:04:35;25.50;43.60
52973;DHT22;38837;48.916;2.336;2023-06-14T05:06:45;25.40;43.50
52973;DHT22;38837;48.916;2.336;2023-06-14T05:08:47;25.50;43.60
52973;DHT22;38837;48.916;2.336;2023-06-14T05:10:49;25.50;43.60
52973;DHT22;38837;48.916;2.336;2023-06-14T05:12:51;25.50;43.60
52973;DHT22;38837;48.916;2.336;2023-06-14T05:14:54;25.40;43.60
52973;DHT22;38837;48.916;2.336;2023-06-14T05:16:56;25.40;43.60
52973;DHT22;38837;48.916;2.336;2023-06-14T05:18:58;25.50;43.70
52973;DHT22;38837;48.916;2.336;2023-06-14T05:21:01;25.50;43.60
52973;DHT22;38837;48.916;2.336;2023-06-14T05:23:03;25.50;43.70
52973;DHT22;38837;48.916;2.336;2023-06-14T05:25:05;25.40;43.60
52973;DHT22;38837;48.916;2.336;2023-06-14T05:27:07;25.40;43.60
52973;DHT22;38837;48.916;2.336;2023-06-14T05:29:09;25.40;43.60
52973;DHT22;38837;48.916;2.336;2023-06-14T05:31:11;25.40;43.60
52973;DHT22;38837;48.916;2.336;2023-06-14T05:33:13;25.40;43.60
52973;DHT22;38837;48.916;2.336;2023-06-14T05:35:15;25.40;43.60
52973;DHT22;38837;48.916;2.336;2023-06-14T05:37:17;25.40;43.60
52973;DHT22;38837;48.916;2.336;2023-06-14T05:39:19;25.40;43.60
52973;DHT22;38837;48.916;2.336;2023-06-14T05:41:21;25.40;43.60
52973;DHT22;38837;48.916;2.336;2023-06-14T05:43:23;25.40;43.70
52973;DHT22;38837;48.916;2.336;2023-06-14T05:45:25;25.40;43.60
52973;DHT22;38837;48.916;2.336;2023-06-14T05:47:29;25.40;43.60
52973;DHT22;38837;48.916;2.336;2023-06-14T05:49:31;25.40;43.70
52973;DHT22;38837;48.916;2.336;2023-06-14T05:51:34;25.40;43.70
52973;DHT22;38837;48.916;2.336;2023-06-14T05:53:36;25.40;43.70
52973;DHT22;38837;48.916;2.336;2023-06-14T05:55:38;25.40;43.70
52973;DHT22;38837;48.916;2.336;2023-06-14T05:57:42;25.40;43.70
52973;DHT22;38837;48.916;2.336;2023-06-14T05:59:44;25.40;43.70
52973;DHT22;38837;48.916;2.336;2023-06-14T06:01:46;25.30;44.20
52973;DHT22;38837;48.916;2.336;2023-06-14T06:03:48;25.40;43.70
52973;DHT22;38837;48.916;2.336;2023-06-14T06:05:50;25.40;43.70
52973;DHT22;38837;48.916;2.336;2023-06-14T06:07:52;25.30;43.70
52973;DHT22;38837;48.916;2.336;2023-06-14T06:09:54;25.30;43.70
52973;DHT22;38837;48.916;2.336;2023-06-14T06:11:57;25.30;43.70
52973;DHT22;38837;48.916;2.336;2023-06-14T06:13:59;25.30;43.70
52973;DHT22;38837;48.916;2.336;2023-06-14T06:16:02;25.30;43.70
52973;DHT22;38837;48.916;2.336;2023-06-14T06:18:04;25.30;43.70
52973;DHT22;38837;48.916;2.336;2023-06-14T06:20:07;25.30;43.70
52973;DHT22;38837;48.916;2.336;2023-06-14T06:22:10;25.30;43.70
52973;DHT22;38837;48.916;2.336;2023-06-14T06:24:12;25.30;43.70
52973;DHT22;38837;48.916;2.336;2023-06-14T06:26:14;25.30;43.70
52973;DHT22;38837;48.916;2.336;2023-06-14T06:28:16;25.30;43.70
52973;DHT22;38837;48.916;2.336;2023-06-14T06:30:18;25.30;43.70
52973;DHT22;38837;48.916;2.336;2023-06-14T06:32:21;25.30;43.70
52973;DHT22;38837;48.916;2.336;2023-06-14T06:34:23;25.30;43.70
52973;DHT22;38837;48.916;2.336;2023-06-14T06:36:26;25.30;43.60
52973;DHT22;38837;48.916;2.336;2023-06-14T06:38:27;25.30;43.70
52973;DHT22;38837;48.916;2.336;2023-06-14T06:40:29;25.30;43.70
52973;DHT22;38837;48.916;2.336;2023-06-14T06:42:32;25.30;43.70
52973;DHT22;38837;48.916;2.336;2023-06-14T06:44:33;25.30;43.70
52973;DHT22;38837;48.916;2.336;2023-06-14T06:46:36;25.30;43.60
52973;DHT22;38837;48.916;2.336;2023-06-14T06:48:41;25.30;43.60
52973;DHT22;38837;48.916;2.336;2023-06-14T06:50:43;25.30;43.60
52973;DHT22;38837;48.916;2.336;2023-06-14T06:52:45;25.30;44.20
52973;DHT22;38837;48.916;2.336;2023-06-14T06:54:47;25.30;43.60
52973;DHT22;38837;48.916;2.336;2023-06-14T06:56:50;25.30;43.60
52973;DHT22;38837;48.916;2.336;2023-06-14T06:58:52;25.30;43.60
52973;DHT22;38837;48.916;2.336;2023-06-14T07:00:54;25.30;43.60
52973;DHT22;38837;48.916;2.336;2023-06-14T07:02:56;25.40;43.70
52973;DHT22;38837;48.916;2.336;2023-06-14T07:04:59;25.40;43.80
52973;DHT22;38837;48.916;2.336;2023-06-14T07:07:00;25.40;43.70
52973;DHT22;38837;48.916;2.336;2023-06-14T07:09:02;25.40;43.70
52973;DHT22;38837;48.916;2.336;2023-06-14T07:11:06;25.40;43.70
52973;DHT22;38837;48.916;2.336;2023-06-14T07:13:09;25.40;43.60
52973;DHT22;38837;48.916;2.336;2023-06-14T07:15:11;25.40;43.60
52973;DHT22;38837;48.916;2.336;2023-06-14T07:17:13;25.40;43.60
52973;DHT22;38837;48.916;2.336;2023-06-14T07:19:15;25.40;43.60
52973;DHT22;38837;48.916;2.336;2023-06-14T07:21:17;25.50;43.60
52973;DHT22;38837;48.916;2.336;2023-06-14T07:23:20;25.50;43.40
52973;DHT22;38837;48.916;2.336;2023-06-14T07:25:22;25.50;43.40
52973;DHT22;38837;48.916;2.336;2023-06-14T07:27:24;25.50;43.40
52973;DHT22;38837;48.916;2.336;2023-06-14T07:29:26;25.60;43.40
52973;DHT22;38837;48.916;2.336;2023-06-14T07:31:28;25.60;43.40
52973;DHT22;38837;48.916;2.336;2023-06-14T07:33:33;25.50;43.30
52973;DHT22;38837;48.916;2.336;2023-06-14T07:35:35;25.60;43.30
52973;DHT22;38837;48.916;2.336;2023-06-14T07:37:36;25.60;43.20
52973;DHT22;38837;48.916;2.336;2023-06-14T07:39:38;25.60;43.20
52973;DHT22;38837;48.916;2.336;2023-06-14T07:41:40;25.60;43.10
52973;DHT22;38837;48.916;2.336;2023-06-14T07:43:42;25.60;43.00
52973;DHT22;38837;48.916;2.336;2023-06-14T07:45:44;25.60;42.90
52973;DHT22;38837;48.916;2.336;2023-06-14T07:47:58;25.60;43.00
52973;DHT22;38837;48.916;2.336;2023-06-14T07:50:00;25.60;43.00
52973;DHT22;38837;48.916;2.336;2023-06-14T07:52:02;25.60;43.00
52973;DHT22;38837;48.916;2.336;2023-06-14T07:54:04;25.60;43.00
52973;DHT22;38837;48.916;2.336;2023-06-14T07:56:08;25.70;43.00
52973;DHT22;38837;48.916;2.336;2023-06-14T07:58:10;25.70;43.00
52973;DHT22;38837;48.916;2.336;2023-06-14T08:00:13;25.70;43.00
52973;DHT22;38837;48.916;2.336;2023-06-14T08:02:17;25.70;43.00
52973;DHT22;38837;48.916;2.336;2023-06-14T08:04:19;25.70;42.80
52973;DHT22;38837;48.916;2.336;2023-06-14T08:06:21;25.70;43.00
52973;DHT22;38837;48.916;2.336;2023-06-14T08:08:23;25.70;43.00
52973;DHT22;38837;48.916;2.336;2023-06-14T08:10:25;25.70;43.60
52973;DHT22;38837;48.916;2.336;2023-06-14T08:12:27;25.70;43.00
52973;DHT22;38837;48.916;2.336;2023-06-14T08:14:29;25.70;42.90
52973;DHT22;38837;48.916;2.336;2023-06-14T08:16:31;25.70;42.80
52973;DHT22;38837;48.916;2.336;2023-06-14T08:18:34;25.70;42.80
52973;DHT22;38837;48.916;2.336;2023-06-14T08:20:36;25.80;42.80
52973;DHT22;38837;48.916;2.336;2023-06-14T08:22:39;25.80;44.10
52973;DHT22;38837;48.916;2.336;2023-06-14T08:24:43;25.80;43.70
52973;DHT22;38837;48.916;2.336;2023-06-14T08:26:46;25.80;43.30
52973;DHT22;38837;48.916;2.336;2023-06-14T08:28:48;25.80;43.10
52973;DHT22;38837;48.916;2.336;2023-06-14T08:30:50;25.80;43.10
52973;DHT22;38837;48.916;2.336;2023-06-14T08:32:52;25.80;43.60
52973;DHT22;38837;48.916;2.336;2023-06-14T08:35:11;25.90;44.00
52973;DHT22;38837;48.916;2.336;2023-06-14T08:37:14;25.90;43.40
52973;DHT22;38837;48.916;2.336;2023-06-14T08:39:16;25.90;43.20
52973;DHT22;38837;48.916;2.336;2023-06-14T08:41:22;25.90;43.20
52973;DHT22;38837;48.916;2.336;2023-06-14T08:43:25;26.00;43.60
52973;DHT22;38837;48.916;2.336;2023-06-14T08:45:27;26.00;43.60
52973;DHT22;38837;48.916;2.336;2023-06-14T08:47:32;26.10;44.50
52973;DHT22;38837;48.916;2.336;2023-06-14T08:49:46;26.10;44.40
52973;DHT22;38837;48.916;2.336;2023-06-14T08:51:52;26.20;43.90
52973;DHT22;38837;48.916;2.336;2023-06-14T08:53:56;26.20;43.90
52973;DHT22;38837;48.916;2.336;2023-06-14T08:56:03;26.20;44.70
52973;DHT22;38837;48.916;2.336;2023-06-14T08:58:06;26.30;43.80
52973;DHT22;38837;48.916;2.336;2023-06-14T09:00:12;26.30;43.50
52973;DHT22;38837;48.916;2.336;2023-06-14T09:02:15;26.30;43.50
52973;DHT22;38837;48.916;2.336;2023-06-14T09:04:21;26.40;43.10
52973;DHT22;38837;48.916;2.336;2023-06-14T09:06:24;26.40;43.20
52973;DHT22;38837;48.916;2.336;2023-06-14T09:08:27;26.40;42.70
52973;DHT22;38837;48.916;2.336;2023-06-14T09:10:32;26.40;43.40
52973;DHT22;38837;48.916;2.336;2023-06-14T09:12:40;26.50;42.90
52973;DHT22;38837;48.916;2.336;2023-06-14T09:14:42;26.50;42.30
52973;DHT22;38837;48.916;2.336;2023-06-14T09:16:44;26.50;41.90
52973;DHT22;38837;48.916;2.336;2023-06-14T09:18:47;26.50;41.80
52973;DHT22;38837;48.916;2.336;2023-06-14T09:20:53;26.50;41.90
52973;DHT22;38837;48.916;2.336;2023-06-14T09:22:55;26.50;41.20
52973;DHT22;38837;48.916;2.336;2023-06-14T09:24:57;26.50;41.20
52973;DHT22;38837;48.916;2.336;2023-06-14T09:26:59;26.40;40.90
52973;DHT22;38837;48.916;2.336;2023-06-14T09:29:04;26.40;40.60
52973;DHT22;38837;48.916;2.336;2023-06-14T09:31:07;26.40;40.50
52973;DHT22;38837;48.916;2.336;2023-06-14T09:33:10;26.40;39.90
52973;DHT22;38837;48.916;2.336;2023-06-14T09:35:12;26.40;40.00
52973;DHT22;38837;48.916;2.336;2023-06-14T09:37:29;26.40;39.30
52973;DHT22;38837;48.916;2.336;2023-06-14T09:39:32;26.40;38.70
52973;DHT22;38837;48.916;2.336;2023-06-14T09:41:39;26.40;38.40
52973;DHT22;38837;48.916;2.336;2023-06-14T09:43:41;26.40;37.40
52973;DHT22;38837;48.916;2.336;2023-06-14T09:45:44;26.40;39.00
52973;DHT22;38837;48.916;2.336;2023-06-14T09:47:51;26.40;37.20
52973;DHT22;38837;48.916;2.336;2023-06-14T09:50:08;26.30;36.80
52973;DHT22;38837;48.916;2.336;2023-06-14T09:52:18;26.30;37.80
52973;DHT22;38837;48.916;2.336;2023-06-14T09:54:22;26.30;38.40
52973;DHT22;38837;48.916;2.336;2023-06-14T09:56:29;26.30;38.40
52973;DHT22;38837;48.916;2.336;2023-06-14T09:58:33;26.30;37.60
52973;DHT22;38837;48.916;2.336;2023-06-14T10:00:39;26.30;36.10
52973;DHT22;38837;48.916;2.336;2023-06-14T10:02:42;26.30;35.60
52973;DHT22;38837;48.916;2.336;2023-06-14T10:05:05;26.30;37.00
52973;DHT22;38837;48.916;2.336;2023-06-14T10:07:11;26.30;37.00
52973;DHT22;38837;48.916;2.336;2023-06-14T10:09:14;26.30;36.90
52973;DHT22;38837;48.916;2.336;2023-06-14T10:11:18;26.30;36.80
52973;DHT22;38837;48.916;2.336;2023-06-14T10:13:21;26.40;36.50
52973;DHT22;38837;48.916;2.336;2023-06-14T10:17:49;26.30;35.90
52973;DHT22;38837;48.916;2.336;2023-06-14T10:20:03;26.30;33.20
52973;DHT22;38837;48.916;2.336;2023-06-14T10:22:12;26.30;34.60
52973;DHT22;38837;48.916;2.336;2023-06-14T10:24:17;26.30;35.20
52973;DHT22;38837;48.916;2.336;2023-06-14T10:26:22;26.30;34.40
52973;DHT22;38837;48.916;2.336;2023-06-14T10:28:24;26.30;35.60
52973;DHT22;38837;48.916;2.336;2023-06-14T10:30:26;26.30;34.50
52973;DHT22;38837;48.916;2.336;2023-06-14T10:32:28;26.30;34.00
52973;DHT22;38837;48.916;2.336;2023-06-14T10:34:31;26.30;35.30
52973;DHT22;38837;48.916;2.336;2023-06-14T10:36:33;26.40;34.90
52973;DHT22;38837;48.916;2.336;2023-06-14T10:38:37;26.30;34.40
52973;DHT22;38837;48.916;2.336;2023-06-14T10:40:40;26.40;35.40
52973;DHT22;38837;48.916;2.336;2023-06-14T10:42:51;26.40;34.20
52973;DHT22;38837;48.916;2.336;2023-06-14T10:44:55;26.40;35.30
52973;DHT22;38837;48.916;2.336;2023-06-14T10:47:01;26.50;35.30
52973;DHT22;38837;48.916;2.336;2023-06-14T10:49:03;26.50;34.10
52973;DHT22;38837;48.916;2.336;2023-06-14T10:51:17;26.40;35.00
52973;DHT22;38837;48.916;2.336;2023-06-14T10:53:22;26.50;35.30
52973;DHT22;38837;48.916;2.336;2023-06-14T10:55:27;26.50;33.20
52973;DHT22;38837;48.916;2.336;2023-06-14T10:59:46;26.50;35.30
52973;DHT22;38837;48.916;2.336;2023-06-14T11:02:13;26.50;34.20
52973;DHT22;38837;48.916;2.336;2023-06-14T11:04:20;26.60;34.70
52973;DHT22;38837;48.916;2.336;2023-06-14T11:06:23;26.60;34.70
52973;DHT22;38837;48.916;2.336;2023-06-14T11:10:44;26.60;34.80
52973;DHT22;38837;48.916;2.336;2023-06-14T11:12:49;26.60;34.00
52973;DHT22;38837;48.916;2.336;2023-06-14T11:14:52;26.70;33.60
52973;DHT22;38837;48.916;2.336;2023-06-14T11:16:55;26.70;34.30
52973;DHT22;38837;48.916;2.336;2023-06-14T11:18:57;26.70;35.10
52973;DHT22;38837;48.916;2.336;2023-06-14T11:20:58;26.70;34.80
52973;DHT22;38837;48.916;2.336;2023-06-14T11:23:01;26.80;34.90
52973;DHT22;38837;48.916;2.336;2023-06-14T11:25:04;26.80;35.60
52973;DHT22;38837;48.916;2.336;2023-06-14T11:27:06;26.80;35.80
52973;DHT22;38837;48.916;2.336;2023-06-14T11:29:15;26.80;35.10
52973;DHT22;38837;48.916;2.336;2023-06-14T11:31:20;26.80;34.80
52973;DHT22;38837;48.916;2.336;2023-06-14T11:33:22;26.90;34.20
52973;DHT22;38837;48.916;2.336;2023-06-14T11:35:25;26.90;34.50
52973;DHT22;38837;48.916;2.336;2023-06-14T11:37:28;26.90;35.30
52973;DHT22;38837;48.916;2.336;2023-06-14T11:39:34;26.90;35.20
52973;DHT22;38837;48.916;2.336;2023-06-14T11:41:44;27.00;35.30
52973;DHT22;38837;48.916;2.336;2023-06-14T11:43:46;27.00;35.10
52973;DHT22;38837;48.916;2.336;2023-06-14T11:45:49;27.00;34.90
52973;DHT22;38837;48.916;2.336;2023-06-14T11:48:07;27.10;35.30
52973;DHT22;38837;48.916;2.336;2023-06-14T11:50:10;27.10;35.20
52973;DHT22;38837;48.916;2.336;2023-06-14T11:52:12;27.10;35.10
52973;DHT22;38837;48.916;2.336;2023-06-14T11:54:14;27.10;35.40
52973;DHT22;38837;48.916;2.336;2023-06-14T11:56:16;27.10;34.40
52973;DHT22;38837;48.916;2.336;2023-06-14T11:58:19;27.10;34.70
52973;DHT22;38837;48.916;2.336;2023-06-14T12:00:25;27.20;35.00
52973;DHT22;38837;48.916;2.336;2023-06-14T12:02:27;27.20;34.80
52973;DHT22;38837;48.916;2.336;2023-06-14T12:04:33;27.20;33.70
52973;DHT22;38837;48.916;2.336;2023-06-14T12:06:35;27.30;34.70
52973;DHT22;38837;48.916;2.336;2023-06-14T12:08:43;27.30;34.80
52973;DHT22;38837;48.916;2.336;2023-06-14T12:10:46;27.30;35.10
52973;DHT22;38837;48.916;2.336;2023-06-14T12:12:57;27.40;34.90
52973;DHT22;38837;48.916;2.336;2023-06-14T12:15:00;27.40;34.90
52973;DHT22;38837;48.916;2.336;2023-06-14T12:17:07;27.40;35.30
52973;DHT22;38837;48.916;2.336;2023-06-14T12:19:13;27.50;34.80
52973;DHT22;38837;48.916;2.336;2023-06-14T12:21:15;27.50;35.20
52973;DHT22;38837;48.916;2.336;2023-06-14T12:23:18;27.50;34.10
52973;DHT22;38837;48.916;2.336;2023-06-14T12:25:33;27.50;34.10
52973;DHT22;38837;48.916;2.336;2023-06-14T12:27:40;27.60;33.60
52973;DHT22;38837;48.916;2.336;2023-06-14T12:29:42;27.60;34.50
52973;DHT22;38837;48.916;2.336;2023-06-14T12:31:47;27.50;34.70
52973;DHT22;38837;48.916;2.336;2023-06-14T12:33:49;27.60;35.30
52973;DHT22;38837;48.916;2.336;2023-06-14T12:35:55;27.60;35.10
52973;DHT22;38837;48.916;2.336;2023-06-14T12:37:58;27.60;34.80
52973;DHT22;38837;48.916;2.336;2023-06-14T12:40:00;27.60;35.30
52973;DHT22;38837;48.916;2.336;2023-06-14T12:42:02;27.60;34.60
52973;DHT22;38837;48.916;2.336;2023-06-14T12:44:05;27.60;34.50
52973;DHT22;38837;48.916;2.336;2023-06-14T12:46:07;27.60;34.70
52973;DHT22;38837;48.916;2.336;2023-06-14T12:48:09;27.60;35.00
52973;DHT22;38837;48.916;2.336;2023-06-14T12:50:11;27.60;35.10
52973;DHT22;38837;48.916;2.336;2023-06-14T12:52:13;27.60;35.10
52973;DHT22;38837;48.916;2.336;2023-06-14T12:54:15;27.60;35.00
52973;DHT22;38837;48.916;2.336;2023-06-14T12:56:29;27.60;34.40
52973;DHT22;38837;48.916;2.336;2023-06-14T12:58:31;27.60;34.50
52973;DHT22;38837;48.916;2.336;2023-06-14T13:00:33;27.60;34.30
52973;DHT22;38837;48.916;2.336;2023-06-14T13:02:34;27.60;34.50
52973;DHT22;38837;48.916;2.336;2023-06-14T13:04:37;27.60;34.90
52973;DHT22;38837;48.916;2.336;2023-06-14T13:06:39;27.60;34.80
52973;DHT22;38837;48.916;2.336;2023-06-14T13:08:41;27.60;33.70
52973;DHT22;38837;48.916;2.336;2023-06-14T13:10:43;27.60;34.00